sensor_id;sensor_type;location;lat;lon;timestamp;P1;durP1;ratioP1;P2;durP2;ratioP2
58294;SDS011;45705;55.592;37.460;2022-09-21T00:00:43;18.67;;;10.10;;
58294;SDS011;45705;55.592;37.460;2022-09-21T00:03:09;23.40;;;10.15;;
58294;SDS011;45705;55.592;37.460;2022-09-21T00:05:35;19.27;;;10.10;;
58294;SDS011;45705;55.592;37.460;2022-09-21T00:08:02;21.33;;;8.82;;
58294;SDS011;45705;55.592;37.460;2022-09-21T00:10:29;18.83;;;9.37;;
58294;SDS011;45705;55.592;37.460;2022-09-21T00:12:55;16.25;;;8.90;;
58294;SDS011;45705;55.592;37.460;2022-09-21T00:15:23;13.88;;;9.02;;
58294;SDS011;45705;55.592;37.460;2022-09-21T00:17:52;17.83;;;9.55;;
58294;SDS011;45705;55.592;37.460;2022-09-21T00:20:19;21.92;;;8.85;;
58294;SDS011;45705;55.592;37.460;2022-09-21T00:22:49;21.35;;;9.52;;
58294;SDS011;45705;55.592;37.460;2022-09-21T00:25:16;21.23;;;10.52;;
58294;SDS011;45705;55.592;37.460;2022-09-21T00:27:42;19.80;;;10.05;;
58294;SDS011;45705;55.592;37.460;2022-09-21T00:30:09;18.90;;;10.40;;
58294;SDS011;45705;55.592;37.460;2022-09-21T00:32:36;16.73;;;9.88;;
58294;SDS011;45705;55.592;37.460;2022-09-21T00:35:04;22.80;;;10.60;;
58294;SDS011;45705;55.592;37.460;2022-09-21T00:37:32;18.20;;;9.77;;
58294;SDS011;45705;55.592;37.460;2022-09-21T00:39:58;17.17;;;9.82;;
58294;SDS011;45705;55.592;37.460;2022-09-21T00:42:25;15.82;;;9.23;;
58294;SDS011;45705;55.592;37.460;2022-09-21T00:44:54;14.00;;;9.52;;
58294;SDS011;45705;55.592;37.460;2022-09-21T00:49:52;18.17;;;9.23;;
58294;SDS011;45705;55.592;37.460;2022-09-21T00:52:21;17.80;;;10.88;;
58294;SDS011;45705;55.592;37.460;2022-09-21T00:57:43;18.80;;;10.52;;
58294;SDS011;45705;55.592;37.460;2022-09-21T01:00:13;18.30;;;10.68;;
58294;SDS011;45705;55.592;37.460;2022-09-21T01:02:39;14.77;;;9.57;;
58294;SDS011;45705;55.592;37.460;2022-09-21T01:05:05;16.42;;;10.43;;
58294;SDS011;45705;55.592;37.460;2022-09-21T01:07:33;13.10;;;8.70;;
58294;SDS011;45705;55.592;37.460;2022-09-21T01:10:11;17.67;;;8.13;;
58294;SDS011;45705;55.592;37.460;2022-09-21T01:18:51;20.95;;;8.70;;
58294;SDS011;45705;55.592;37.460;2022-09-21T01:21:36;15.57;;;9.10;;
58294;SDS011;45705;55.592;37.460;2022-09-21T01:24:48;17.52;;;11.23;;
58294;SDS011;45705;55.592;37.460;2022-09-21T01:27:44;18.25;;;8.98;;
58294;SDS011;45705;55.592;37.460;2022-09-21T01:30:19;18.10;;;9.52;;
58294;SDS011;45705;55.592;37.460;2022-09-21T01:35:26;17.05;;;9.35;;
58294;SDS011;45705;55.592;37.460;2022-09-21T01:38:00;18.15;;;10.07;;
58294;SDS011;45705;55.592;37.460;2022-09-21T01:40:37;19.38;;;11.85;;
58294;SDS011;45705;55.592;37.460;2022-09-21T01:43:09;18.63;;;10.63;;
58294;SDS011;45705;55.592;37.460;2022-09-21T01:45:41;18.65;;;10.10;;
58294;SDS011;45705;55.592;37.460;2022-09-21T01:48:13;19.83;;;11.27;;
58294;SDS011;45705;55.592;37.460;2022-09-21T01:50:41;16.05;;;9.13;;
58294;SDS011;45705;55.592;37.460;2022-09-21T01:53:21;22.83;;;9.35;;
58294;SDS011;45705;55.592;37.460;2022-09-21T01:56:00;20.27;;;10.07;;
58294;SDS011;45705;55.592;37.460;2022-09-21T01:58:35;17.07;;;9.80;;
58294;SDS011;45705;55.592;37.460;2022-09-21T02:01:06;15.60;;;8.95;;
58294;SDS011;45705;55.592;37.460;2022-09-21T02:03:37;14.63;;;8.77;;
58294;SDS011;45705;55.592;37.460;2022-09-21T02:06:08;25.10;;;9.23;;
58294;SDS011;45705;55.592;37.460;2022-09-21T02:08:35;14.02;;;8.70;;
58294;SDS011;45705;55.592;37.460;2022-09-21T02:11:03;21.52;;;10.63;;
58294;SDS011;45705;55.592;37.460;2022-09-21T02:13:31;15.15;;;9.02;;
58294;SDS011;45705;55.592;37.460;2022-09-21T02:21:33;14.98;;;8.48;;
58294;SDS011;45705;55.592;37.460;2022-09-21T02:26:48;19.23;;;9.45;;
58294;SDS011;45705;55.592;37.460;2022-09-21T02:29:32;21.40;;;8.93;;
58294;SDS011;45705;55.592;37.460;2022-09-21T02:34:52;18.80;;;9.48;;
58294;SDS011;45705;55.592;37.460;2022-09-21T02:37:34;17.85;;;8.68;;
58294;SDS011;45705;55.592;37.460;2022-09-21T02:42:55;18.33;;;8.60;;
58294;SDS011;45705;55.592;37.460;2022-09-21T02:45:29;14.35;;;9.00;;
58294;SDS011;45705;55.592;37.460;2022-09-21T02:48:02;23.17;;;12.63;;
58294;SDS011;45705;55.592;37.460;2022-09-21T02:50:34;36.40;;;18.38;;
58294;SDS011;45705;55.592;37.460;2022-09-21T02:53:06;27.63;;;12.73;;
58294;SDS011;45705;55.592;37.460;2022-09-21T02:55:35;41.28;;;19.92;;
58294;SDS011;45705;55.592;37.460;2022-09-21T02:58:02;31.67;;;16.67;;
58294;SDS011;45705;55.592;37.460;2022-09-21T03:00:31;48.35;;;28.35;;
58294;SDS011;45705;55.592;37.460;2022-09-21T03:02:59;42.72;;;25.13;;
58294;SDS011;45705;55.592;37.460;2022-09-21T03:05:25;39.35;;;23.88;;
58294;SDS011;45705;55.592;37.460;2022-09-21T03:07:52;28.50;;;15.95;;
58294;SDS011;45705;55.592;37.460;2022-09-21T03:10:18;27.13;;;14.88;;
58294;SDS011;45705;55.592;37.460;2022-09-21T03:12:44;40.42;;;19.15;;
58294;SDS011;45705;55.592;37.460;2022-09-21T03:15:11;28.00;;;13.55;;
58294;SDS011;45705;55.592;37.460;2022-09-21T03:17:36;15.90;;;10.75;;
58294;SDS011;45705;55.592;37.460;2022-09-21T03:20:02;15.45;;;9.18;;
58294;SDS011;45705;55.592;37.460;2022-09-21T03:22:28;20.73;;;12.70;;
58294;SDS011;45705;55.592;37.460;2022-09-21T03:24:54;20.88;;;11.23;;
58294;SDS011;45705;55.592;37.460;2022-09-21T03:27:21;20.60;;;11.50;;
58294;SDS011;45705;55.592;37.460;2022-09-21T03:29:48;15.43;;;9.90;;
58294;SDS011;45705;55.592;37.460;2022-09-21T03:32:14;17.83;;;10.20;;
58294;SDS011;45705;55.592;37.460;2022-09-21T03:34:40;17.05;;;9.48;;
58294;SDS011;45705;55.592;37.460;2022-09-21T03:37:07;18.80;;;10.18;;
58294;SDS011;45705;55.592;37.460;2022-09-21T03:39:34;14.73;;;9.45;;
58294;SDS011;45705;55.592;37.460;2022-09-21T03:42:00;22.70;;;10.88;;
58294;SDS011;45705;55.592;37.460;2022-09-21T03:44:26;20.13;;;9.10;;
58294;SDS011;45705;55.592;37.460;2022-09-21T03:46:53;22.55;;;10.32;;
58294;SDS011;45705;55.592;37.460;2022-09-21T03:49:19;26.38;;;11.90;;
58294;SDS011;45705;55.592;37.460;2022-09-21T03:51:45;36.40;;;12.02;;
58294;SDS011;45705;55.592;37.460;2022-09-21T03:54:11;29.80;;;12.10;;
58294;SDS011;45705;55.592;37.460;2022-09-21T03:56:37;23.77;;;11.43;;
58294;SDS011;45705;55.592;37.460;2022-09-21T03:59:02;30.27;;;12.85;;
58294;SDS011;45705;55.592;37.460;2022-09-21T04:01:28;27.63;;;12.57;;
58294;SDS011;45705;55.592;37.460;2022-09-21T04:03:54;19.52;;;12.25;;
58294;SDS011;45705;55.592;37.460;2022-09-21T04:06:20;21.25;;;12.35;;
58294;SDS011;45705;55.592;37.460;2022-09-21T04:08:46;29.17;;;14.50;;
58294;SDS011;45705;55.592;37.460;2022-09-21T04:11:13;29.13;;;17.00;;
58294;SDS011;45705;55.592;37.460;2022-09-21T04:13:43;29.52;;;16.42;;
58294;SDS011;45705;55.592;37.460;2022-09-21T04:16:13;33.85;;;15.35;;
58294;SDS011;45705;55.592;37.460;2022-09-21T04:18:39;27.65;;;13.45;;
58294;SDS011;45705;55.592;37.460;2022-09-21T04:21:04;28.50;;;14.52;;
58294;SDS011;45705;55.592;37.460;2022-09-21T04:23:31;30.10;;;14.25;;
58294;SDS011;45705;55.592;37.460;2022-09-21T04:25:57;28.20;;;12.88;;
58294;SDS011;45705;55.592;37.460;2022-09-21T04:28:23;32.40;;;14.60;;
58294;SDS011;45705;55.592;37.460;2022-09-21T04:30:52;18.27;;;11.70;;
58294;SDS011;45705;55.592;37.460;2022-09-21T04:33:20;25.45;;;12.77;;
58294;SDS011;45705;55.592;37.460;2022-09-21T04:35:53;26.92;;;12.73;;
58294;SDS011;45705;55.592;37.460;2022-09-21T04:38:20;18.67;;;12.00;;
58294;SDS011;45705;55.592;37.460;2022-09-21T04:40:56;17.50;;;11.15;;
58294;SDS011;45705;55.592;37.460;2022-09-21T04:43:22;26.88;;;12.70;;
58294;SDS011;45705;55.592;37.460;2022-09-21T04:45:48;18.33;;;10.05;;
58294;SDS011;45705;55.592;37.460;2022-09-21T04:48:14;23.38;;;10.30;;
58294;SDS011;45705;55.592;37.460;2022-09-21T04:50:40;16.88;;;9.10;;
58294;SDS011;45705;55.592;37.460;2022-09-21T04:53:08;12.40;;;8.77;;
58294;SDS011;45705;55.592;37.460;2022-09-21T04:55:33;13.82;;;8.52;;
58294;SDS011;45705;55.592;37.460;2022-09-21T04:57:59;17.25;;;7.45;;
58294;SDS011;45705;55.592;37.460;2022-09-21T05:00:25;19.38;;;8.73;;
58294;SDS011;45705;55.592;37.460;2022-09-21T05:02:51;16.15;;;8.35;;
58294;SDS011;45705;55.592;37.460;2022-09-21T05:05:17;13.25;;;8.23;;
58294;SDS011;45705;55.592;37.460;2022-09-21T05:07:43;18.58;;;9.05;;
58294;SDS011;45705;55.592;37.460;2022-09-21T05:10:09;17.67;;;9.05;;
58294;SDS011;45705;55.592;37.460;2022-09-21T05:12:35;18.50;;;8.95;;
58294;SDS011;45705;55.592;37.460;2022-09-21T05:15:02;11.68;;;8.27;;
58294;SDS011;45705;55.592;37.460;2022-09-21T05:17:29;18.73;;;8.45;;
58294;SDS011;45705;55.592;37.460;2022-09-21T05:19:54;15.30;;;9.07;;
58294;SDS011;45705;55.592;37.460;2022-09-21T05:22:20;14.18;;;8.15;;
58294;SDS011;45705;55.592;37.460;2022-09-21T05:24:46;14.05;;;9.27;;
58294;SDS011;45705;55.592;37.460;2022-09-21T05:27:12;16.63;;;9.18;;
58294;SDS011;45705;55.592;37.460;2022-09-21T05:29:38;17.40;;;8.43;;
58294;SDS011;45705;55.592;37.460;2022-09-21T05:35:07;12.75;;;8.10;;
58294;SDS011;45705;55.592;37.460;2022-09-21T05:40:32;20.58;;;7.85;;
58294;SDS011;45705;55.592;37.460;2022-09-21T05:42:59;21.20;;;8.70;;
58294;SDS011;45705;55.592;37.460;2022-09-21T05:45:25;16.42;;;7.95;;
58294;SDS011;45705;55.592;37.460;2022-09-21T05:50:23;12.32;;;8.35;;
58294;SDS011;45705;55.592;37.460;2022-09-21T05:56:06;14.13;;;8.35;;
58294;SDS011;45705;55.592;37.460;2022-09-21T06:01:33;14.00;;;7.93;;
58294;SDS011;45705;55.592;37.460;2022-09-21T06:04:18;13.68;;;8.48;;
58294;SDS011;45705;55.592;37.460;2022-09-21T06:06:44;19.35;;;8.52;;
58294;SDS011;45705;55.592;37.460;2022-09-21T06:09:09;16.15;;;9.23;;
58294;SDS011;45705;55.592;37.460;2022-09-21T06:11:35;15.45;;;8.63;;
58294;SDS011;45705;55.592;37.460;2022-09-21T06:14:01;18.20;;;9.57;;
58294;SDS011;45705;55.592;37.460;2022-09-21T06:16:35;66.78;;;12.73;;
58294;SDS011;45705;55.592;37.460;2022-09-21T06:19:02;18.45;;;9.85;;
58294;SDS011;45705;55.592;37.460;2022-09-21T06:21:28;19.13;;;8.43;;
58294;SDS011;45705;55.592;37.460;2022-09-21T06:23:53;22.73;;;9.30;;
58294;SDS011;45705;55.592;37.460;2022-09-21T06:26:19;17.88;;;9.60;;
58294;SDS011;45705;55.592;37.460;2022-09-21T06:28:44;16.70;;;9.50;;
58294;SDS011;45705;55.592;37.460;2022-09-21T06:31:10;25.95;;;10.73;;
58294;SDS011;45705;55.592;37.460;2022-09-21T06:33:36;16.55;;;10.18;;
58294;SDS011;45705;55.592;37.460;2022-09-21T06:36:02;19.13;;;9.25;;
58294;SDS011;45705;55.592;37.460;2022-09-21T06:38:28;18.63;;;9.18;;
58294;SDS011;45705;55.592;37.460;2022-09-21T06:40:54;14.82;;;8.70;;
58294;SDS011;45705;55.592;37.460;2022-09-21T06:43:20;14.35;;;8.52;;
58294;SDS011;45705;55.592;37.460;2022-09-21T06:45:53;20.52;;;9.05;;
58294;SDS011;45705;55.592;37.460;2022-09-21T06:48:19;15.20;;;8.38;;
58294;SDS011;45705;55.592;37.460;2022-09-21T06:50:45;21.58;;;8.48;;
58294;SDS011;45705;55.592;37.460;2022-09-21T06:53:11;16.02;;;8.73;;
58294;SDS011;45705;55.592;37.460;2022-09-21T06:55:38;13.50;;;8.27;;
58294;SDS011;45705;55.592;37.460;2022-09-21T06:58:04;11.82;;;8.13;;
58294;SDS011;45705;55.592;37.460;2022-09-21T07:00:29;12.48;;;8.27;;
58294;SDS011;45705;55.592;37.460;2022-09-21T07:02:56;20.08;;;9.25;;
58294;SDS011;45705;55.592;37.460;2022-09-21T07:05:22;15.57;;;9.65;;
58294;SDS011;45705;55.592;37.460;2022-09-21T07:07:48;16.10;;;9.07;;
58294;SDS011;45705;55.592;37.460;2022-09-21T07:10:13;17.48;;;8.70;;
58294;SDS011;45705;55.592;37.460;2022-09-21T07:12:39;15.63;;;11.10;;
58294;SDS011;45705;55.592;37.460;2022-09-21T07:15:05;20.58;;;10.52;;
58294;SDS011;45705;55.592;37.460;2022-09-21T07:17:32;15.65;;;9.93;;
58294;SDS011;45705;55.592;37.460;2022-09-21T07:20:00;13.60;;;9.60;;
58294;SDS011;45705;55.592;37.460;2022-09-21T07:22:32;14.52;;;9.80;;
58294;SDS011;45705;55.592;37.460;2022-09-21T07:24:58;16.27;;;10.27;;
58294;SDS011;45705;55.592;37.460;2022-09-21T07:27:24;18.45;;;10.00;;
58294;SDS011;45705;55.592;37.460;2022-09-21T07:29:51;19.00;;;9.18;;
58294;SDS011;45705;55.592;37.460;2022-09-21T07:32:17;14.77;;;8.80;;
58294;SDS011;45705;55.592;37.460;2022-09-21T07:34:44;16.15;;;8.05;;
58294;SDS011;45705;55.592;37.460;2022-09-21T07:37:10;9.98;;;7.50;;
58294;SDS011;45705;55.592;37.460;2022-09-21T07:39:37;9.93;;;6.43;;
58294;SDS011;45705;55.592;37.460;2022-09-21T07:42:05;11.23;;;5.82;;
58294;SDS011;45705;55.592;37.460;2022-09-21T07:44:31;15.23;;;7.20;;
58294;SDS011;45705;55.592;37.460;2022-09-21T07:46:58;9.23;;;5.85;;
58294;SDS011;45705;55.592;37.460;2022-09-21T07:49:25;12.07;;;5.40;;
58294;SDS011;45705;55.592;37.460;2022-09-21T07:51:51;11.50;;;5.30;;
58294;SDS011;45705;55.592;37.460;2022-09-21T07:54:16;10.02;;;5.47;;
58294;SDS011;45705;55.592;37.460;2022-09-21T07:56:42;10.10;;;5.45;;
58294;SDS011;45705;55.592;37.460;2022-09-21T07:59:28;9.07;;;5.40;;
58294;SDS011;45705;55.592;37.460;2022-09-21T08:01:56;7.43;;;4.85;;
58294;SDS011;45705;55.592;37.460;2022-09-21T08:04:22;10.98;;;6.20;;
58294;SDS011;45705;55.592;37.460;2022-09-21T08:06:47;10.20;;;5.78;;
58294;SDS011;45705;55.592;37.460;2022-09-21T08:09:13;12.45;;;6.32;;
58294;SDS011;45705;55.592;37.460;2022-09-21T08:11:39;11.80;;;5.90;;
58294;SDS011;45705;55.592;37.460;2022-09-21T08:14:09;15.13;;;7.10;;
58294;SDS011;45705;55.592;37.460;2022-09-21T08:16:36;18.15;;;7.85;;
58294;SDS011;45705;55.592;37.460;2022-09-21T08:19:03;11.85;;;7.47;;
58294;SDS011;45705;55.592;37.460;2022-09-21T08:21:29;13.20;;;7.47;;
58294;SDS011;45705;55.592;37.460;2022-09-21T08:23:55;10.82;;;8.30;;
58294;SDS011;45705;55.592;37.460;2022-09-21T08:26:21;12.02;;;8.65;;
58294;SDS011;45705;55.592;37.460;2022-09-21T08:28:50;15.38;;;8.82;;
58294;SDS011;45705;55.592;37.460;2022-09-21T08:31:17;13.25;;;7.03;;
58294;SDS011;45705;55.592;37.460;2022-09-21T08:33:47;14.48;;;6.40;;
58294;SDS011;45705;55.592;37.460;2022-09-21T08:36:14;13.38;;;7.07;;
58294;SDS011;45705;55.592;37.460;2022-09-21T08:38:40;14.82;;;7.97;;
58294;SDS011;45705;55.592;37.460;2022-09-21T08:41:16;10.38;;;7.10;;
58294;SDS011;45705;55.592;37.460;2022-09-21T08:44:09;16.50;;;8.15;;
58294;SDS011;45705;55.592;37.460;2022-09-21T08:46:39;12.50;;;8.15;;
58294;SDS011;45705;55.592;37.460;2022-09-21T08:49:09;17.07;;;10.03;;
58294;SDS011;45705;55.592;37.460;2022-09-21T08:51:48;14.18;;;9.55;;
58294;SDS011;45705;55.592;37.460;2022-09-21T08:57:15;10.15;;;7.03;;
58294;SDS011;45705;55.592;37.460;2022-09-21T08:59:43;16.75;;;7.40;;
58294;SDS011;45705;55.592;37.460;2022-09-21T09:08:26;12.50;;;6.75;;
58294;SDS011;45705;55.592;37.460;2022-09-21T09:17:20;10.05;;;6.13;;
58294;SDS011;45705;55.592;37.460;2022-09-21T09:22:51;11.13;;;8.30;;
58294;SDS011;45705;55.592;37.460;2022-09-21T09:25:30;10.27;;;6.90;;
58294;SDS011;45705;55.592;37.460;2022-09-21T09:28:05;12.75;;;6.60;;
58294;SDS011;45705;55.592;37.460;2022-09-21T09:30:42;13.18;;;6.18;;
58294;SDS011;45705;55.592;37.460;2022-09-21T09:33:19;8.32;;;6.18;;
58294;SDS011;45705;55.592;37.460;2022-09-21T09:35:53;14.02;;;7.53;;
58294;SDS011;45705;55.592;37.460;2022-09-21T09:38:49;14.05;;;6.75;;
58294;SDS011;45705;55.592;37.460;2022-09-21T09:52:03;12.40;;;7.32;;
58294;SDS011;45705;55.592;37.460;2022-09-21T09:54:33;15.50;;;8.55;;
58294;SDS011;45705;55.592;37.460;2022-09-21T09:57:01;15.77;;;7.95;;
58294;SDS011;45705;55.592;37.460;2022-09-21T09:59:30;15.27;;;7.35;;
58294;SDS011;45705;55.592;37.460;2022-09-21T10:05:03;12.70;;;6.90;;
58294;SDS011;45705;55.592;37.460;2022-09-21T10:07:43;11.60;;;6.13;;
58294;SDS011;45705;55.592;37.460;2022-09-21T10:10:21;11.82;;;7.00;;
58294;SDS011;45705;55.592;37.460;2022-09-21T10:12:47;10.88;;;6.10;;
58294;SDS011;45705;55.592;37.460;2022-09-21T10:15:15;10.80;;;6.18;;
58294;SDS011;45705;55.592;37.460;2022-09-21T10:17:43;14.38;;;6.03;;
58294;SDS011;45705;55.592;37.460;2022-09-21T10:20:15;12.43;;;6.50;;
58294;SDS011;45705;55.592;37.460;2022-09-21T10:22:46;8.50;;;5.60;;
58294;SDS011;45705;55.592;37.460;2022-09-21T10:25:19;12.50;;;6.72;;
58294;SDS011;45705;55.592;37.460;2022-09-21T10:27:46;9.07;;;5.20;;
58294;SDS011;45705;55.592;37.460;2022-09-21T10:32:55;6.82;;;4.75;;
58294;SDS011;45705;55.592;37.460;2022-09-21T10:35:22;10.32;;;4.55;;
58294;SDS011;45705;55.592;37.460;2022-09-21T10:38:07;8.07;;;4.75;;
58294;SDS011;45705;55.592;37.460;2022-09-21T10:40:35;6.35;;;3.05;;
58294;SDS011;45705;55.592;37.460;2022-09-21T10:43:02;6.90;;;3.40;;
58294;SDS011;45705;55.592;37.460;2022-09-21T10:45:32;7.18;;;3.22;;
58294;SDS011;45705;55.592;37.460;2022-09-21T10:48:13;5.63;;;3.28;;
58294;SDS011;45705;55.592;37.460;2022-09-21T10:50:42;7.82;;;3.90;;
58294;SDS011;45705;55.592;37.460;2022-09-21T10:53:11;8.60;;;4.25;;
58294;SDS011;45705;55.592;37.460;2022-09-21T10:58:28;9.95;;;4.40;;
58294;SDS011;45705;55.592;37.460;2022-09-21T11:00:55;5.75;;;3.88;;
58294;SDS011;45705;55.592;37.460;2022-09-21T11:06:23;8.32;;;3.22;;
58294;SDS011;45705;55.592;37.460;2022-09-21T11:08:58;6.40;;;2.60;;
58294;SDS011;45705;55.592;37.460;2022-09-21T11:11:47;4.82;;;3.80;;
58294;SDS011;45705;55.592;37.460;2022-09-21T11:14:46;6.47;;;4.10;;
58294;SDS011;45705;55.592;37.460;2022-09-21T11:17:34;7.13;;;4.10;;
58294;SDS011;45705;55.592;37.460;2022-09-21T11:28:03;7.00;;;4.00;;
58294;SDS011;45705;55.592;37.460;2022-09-21T11:30:52;9.73;;;4.28;;
58294;SDS011;45705;55.592;37.460;2022-09-21T11:58:00;13.57;;;6.90;;
58294;SDS011;45705;55.592;37.460;2022-09-21T12:00:45;16.95;;;7.45;;
58294;SDS011;45705;55.592;37.460;2022-09-21T12:06:32;14.35;;;7.45;;
58294;SDS011;45705;55.592;37.460;2022-09-21T12:22:54;16.13;;;6.93;;
58294;SDS011;45705;55.592;37.460;2022-09-21T12:25:26;7.57;;;5.75;;
58294;SDS011;45705;55.592;37.460;2022-09-21T12:30:29;10.48;;;6.65;;
58294;SDS011;45705;55.592;37.460;2022-09-21T12:35:45;12.73;;;5.60;;
58294;SDS011;45705;55.592;37.460;2022-09-21T12:41:50;12.10;;;6.30;;
58294;SDS011;45705;55.592;37.460;2022-09-21T12:44:10;10.82;;;6.28;;
58294;SDS011;45705;55.592;37.460;2022-09-21T12:46:57;13.55;;;6.13;;
58294;SDS011;45705;55.592;37.460;2022-09-21T12:49:35;13.68;;;6.00;;
58294;SDS011;45705;55.592;37.460;2022-09-21T12:52:06;10.48;;;5.43;;
58294;SDS011;45705;55.592;37.460;2022-09-21T12:54:40;9.65;;;5.32;;
58294;SDS011;45705;55.592;37.460;2022-09-21T13:00:12;7.72;;;5.60;;
58294;SDS011;45705;55.592;37.460;2022-09-21T13:05:44;16.95;;;6.22;;
58294;SDS011;45705;55.592;37.460;2022-09-21T13:08:25;11.13;;;6.80;;
58294;SDS011;45705;55.592;37.460;2022-09-21T13:11:01;11.68;;;5.57;;
58294;SDS011;45705;55.592;37.460;2022-09-21T13:13:37;19.73;;;6.03;;
58294;SDS011;45705;55.592;37.460;2022-09-21T13:16:28;8.40;;;5.22;;
58294;SDS011;45705;55.592;37.460;2022-09-21T13:24:56;34.80;;;19.02;;
58294;SDS011;45705;55.592;37.460;2022-09-21T13:30:37;18.00;;;6.10;;
58294;SDS011;45705;55.592;37.460;2022-09-21T13:35:52;13.95;;;4.90;;
58294;SDS011;45705;55.592;37.460;2022-09-21T13:43:47;9.45;;;3.80;;
58294;SDS011;45705;55.592;37.460;2022-09-21T13:49:22;10.68;;;4.40;;
58294;SDS011;45705;55.592;37.460;2022-09-21T13:54:30;6.63;;;3.72;;
58294;SDS011;45705;55.592;37.460;2022-09-21T13:57:14;8.38;;;3.78;;
58294;SDS011;45705;55.592;37.460;2022-09-21T13:59:44;8.18;;;3.78;;
58294;SDS011;45705;55.592;37.460;2022-09-21T14:10:39;15.68;;;5.13;;
58294;SDS011;45705;55.592;37.460;2022-09-21T14:13:25;7.38;;;4.35;;
58294;SDS011;45705;55.592;37.460;2022-09-21T14:22:42;17.17;;;6.28;;
58294;SDS011;45705;55.592;37.460;2022-09-21T14:24:37;10.07;;;5.25;;
58294;SDS011;45705;55.592;37.460;2022-09-21T14:29:49;6.80;;;4.57;;
58294;SDS011;45705;55.592;37.460;2022-09-21T14:32:21;10.95;;;4.43;;
58294;SDS011;45705;55.592;37.460;2022-09-21T14:34:50;10.45;;;5.00;;
58294;SDS011;45705;55.592;37.460;2022-09-21T14:37:25;11.57;;;5.18;;
58294;SDS011;45705;55.592;37.460;2022-09-21T14:39:55;10.77;;;5.85;;
58294;SDS011;45705;55.592;37.460;2022-09-21T14:42:23;17.88;;;5.75;;
58294;SDS011;45705;55.592;37.460;2022-09-21T14:44:54;15.32;;;6.47;;
58294;SDS011;45705;55.592;37.460;2022-09-21T15:00:56;10.80;;;5.25;;
58294;SDS011;45705;55.592;37.460;2022-09-21T15:04:11;13.75;;;6.03;;
58294;SDS011;45705;55.592;37.460;2022-09-21T15:15:19;21.50;;;5.65;;
58294;SDS011;45705;55.592;37.460;2022-09-21T15:17:55;16.50;;;6.55;;
58294;SDS011;45705;55.592;37.460;2022-09-21T15:20:24;9.95;;;4.68;;
58294;SDS011;45705;55.592;37.460;2022-09-21T15:22:55;9.40;;;3.72;;
58294;SDS011;45705;55.592;37.460;2022-09-21T15:25:23;7.65;;;4.93;;
58294;SDS011;45705;55.592;37.460;2022-09-21T15:27:52;6.47;;;2.92;;
58294;SDS011;45705;55.592;37.460;2022-09-21T15:30:23;5.55;;;2.78;;
58294;SDS011;45705;55.592;37.460;2022-09-21T15:32:54;2.45;;;1.80;;
58294;SDS011;45705;55.592;37.460;2022-09-21T15:35:23;2.20;;;1.58;;
58294;SDS011;45705;55.592;37.460;2022-09-21T15:37:54;4.15;;;2.40;;
58294;SDS011;45705;55.592;37.460;2022-09-21T15:43:03;5.28;;;2.92;;
58294;SDS011;45705;55.592;37.460;2022-09-21T15:45:51;7.75;;;3.97;;
58294;SDS011;45705;55.592;37.460;2022-09-21T15:48:23;5.97;;;3.47;;
58294;SDS011;45705;55.592;37.460;2022-09-21T15:50:55;5.13;;;3.30;;
58294;SDS011;45705;55.592;37.460;2022-09-21T15:53:27;6.72;;;3.50;;
58294;SDS011;45705;55.592;37.460;2022-09-21T15:55:57;5.35;;;3.75;;
58294;SDS011;45705;55.592;37.460;2022-09-21T15:58:31;4.50;;;3.30;;
58294;SDS011;45705;55.592;37.460;2022-09-21T16:01:08;5.30;;;3.47;;
58294;SDS011;45705;55.592;37.460;2022-09-21T16:03:37;7.43;;;3.58;;
58294;SDS011;45705;55.592;37.460;2022-09-21T16:08:48;4.97;;;3.30;;
58294;SDS011;45705;55.592;37.460;2022-09-21T16:11:16;9.02;;;5.30;;
58294;SDS011;45705;55.592;37.460;2022-09-21T16:13:43;9.45;;;5.45;;
58294;SDS011;45705;55.592;37.460;2022-09-21T16:16:29;10.77;;;5.47;;
58294;SDS011;45705;55.592;37.460;2022-09-21T16:18:55;10.93;;;6.32;;
58294;SDS011;45705;55.592;37.460;2022-09-21T16:21:27;13.52;;;8.57;;
58294;SDS011;45705;55.592;37.460;2022-09-21T16:24:18;7.30;;;4.40;;
58294;SDS011;45705;55.592;37.460;2022-09-21T16:27:05;7.90;;;5.13;;
58294;SDS011;45705;55.592;37.460;2022-09-21T16:29:38;8.93;;;5.85;;
58294;SDS011;45705;55.592;37.460;2022-09-21T16:34:42;9.90;;;5.32;;
58294;SDS011;45705;55.592;37.460;2022-09-21T16:39:44;6.63;;;4.55;;
58294;SDS011;45705;55.592;37.460;2022-09-21T16:42:10;6.53;;;4.45;;
58294;SDS011;45705;55.592;37.460;2022-09-21T16:44:37;7.72;;;3.53;;
58294;SDS011;45705;55.592;37.460;2022-09-21T16:47:09;9.07;;;4.37;;
58294;SDS011;45705;55.592;37.460;2022-09-21T16:49:38;6.03;;;3.60;;
58294;SDS011;45705;55.592;37.460;2022-09-21T16:52:06;6.22;;;4.00;;
58294;SDS011;45705;55.592;37.460;2022-09-21T16:54:32;6.25;;;3.90;;
58294;SDS011;45705;55.592;37.460;2022-09-21T16:56:59;5.50;;;3.85;;
58294;SDS011;45705;55.592;37.460;2022-09-21T16:59:26;7.68;;;3.92;;
58294;SDS011;45705;55.592;37.460;2022-09-21T17:01:53;6.97;;;3.05;;
58294;SDS011;45705;55.592;37.460;2022-09-21T17:04:21;4.80;;;3.10;;
58294;SDS011;45705;55.592;37.460;2022-09-21T17:06:49;4.25;;;2.35;;
58294;SDS011;45705;55.592;37.460;2022-09-21T17:09:20;4.10;;;2.80;;
58294;SDS011;45705;55.592;37.460;2022-09-21T17:11:58;4.90;;;2.33;;
58294;SDS011;45705;55.592;37.460;2022-09-21T17:14:26;4.95;;;2.20;;
58294;SDS011;45705;55.592;37.460;2022-09-21T17:16:55;3.13;;;2.47;;
58294;SDS011;45705;55.592;37.460;2022-09-21T17:19:22;3.45;;;1.90;;
58294;SDS011;45705;55.592;37.460;2022-09-21T17:21:49;3.60;;;2.03;;
58294;SDS011;45705;55.592;37.460;2022-09-21T17:24:15;9.60;;;4.88;;
58294;SDS011;45705;55.592;37.460;2022-09-21T17:26:42;5.80;;;2.83;;
58294;SDS011;45705;55.592;37.460;2022-09-21T17:29:16;4.63;;;3.17;;
58294;SDS011;45705;55.592;37.460;2022-09-21T17:34:18;21.17;;;15.45;;
58294;SDS011;45705;55.592;37.460;2022-09-21T17:36:45;7.38;;;3.40;;
58294;SDS011;45705;55.592;37.460;2022-09-21T17:39:10;4.57;;;2.90;;
58294;SDS011;45705;55.592;37.460;2022-09-21T17:41:48;9.63;;;5.10;;
58294;SDS011;45705;55.592;37.460;2022-09-21T17:47:10;23.20;;;10.40;;
58294;SDS011;45705;55.592;37.460;2022-09-21T17:49:43;13.07;;;8.82;;
58294;SDS011;45705;55.592;37.460;2022-09-21T17:52:17;17.38;;;10.70;;
58294;SDS011;45705;55.592;37.460;2022-09-21T17:55:03;22.77;;;12.18;;
58294;SDS011;45705;55.592;37.460;2022-09-21T18:00:11;23.00;;;12.38;;
58294;SDS011;45705;55.592;37.460;2022-09-21T18:02:43;17.35;;;10.27;;
58294;SDS011;45705;55.592;37.460;2022-09-21T18:05:20;16.48;;;10.40;;
58294;SDS011;45705;55.592;37.460;2022-09-21T18:07:51;17.67;;;10.43;;
58294;SDS011;45705;55.592;37.460;2022-09-21T18:10:18;22.45;;;12.20;;
58294;SDS011;45705;55.592;37.460;2022-09-21T18:18:44;23.13;;;11.10;;
58294;SDS011;45705;55.592;37.460;2022-09-21T18:21:19;23.13;;;12.75;;
58294;SDS011;45705;55.592;37.460;2022-09-21T18:26:24;12.27;;;7.70;;
58294;SDS011;45705;55.592;37.460;2022-09-21T18:28:51;8.02;;;5.40;;
58294;SDS011;45705;55.592;37.460;2022-09-21T18:42:36;11.00;;;6.07;;
58294;SDS011;45705;55.592;37.460;2022-09-21T18:45:44;12.02;;;6.82;;
58294;SDS011;45705;55.592;37.460;2022-09-21T18:53:53;10.38;;;5.05;;